Map

Track Data

SID SEASON NUMBER BASIN SUBBASIN NAME ISO_TIME NATURE LAT LON WMO_WIND WMO_PRES WMO_AGENCY TRACK_TYPE DIST2LAND LANDFALL IFLAG USA_AGENCY USA_ATCF_ID USA_LAT USA_LON USA_RECORD USA_STATUS USA_WIND USA_PRES USA_SSHS USA_R34_NE USA_R34_SE USA_R34_SW USA_R34_NW USA_R50_NE USA_R50_SE USA_R50_SW USA_R50_NW USA_R64_NE USA_R64_SE USA_R64_SW USA_R64_NW USA_POCI USA_ROCI USA_RMW USA_EYE TOKYO_LAT TOKYO_LON TOKYO_GRADE TOKYO_WIND TOKYO_PRES TOKYO_R50_DIR TOKYO_R50_LONG TOKYO_R50_SHORT TOKYO_R30_DIR TOKYO_R30_LONG TOKYO_R30_SHORT TOKYO_LAND CMA_LAT CMA_LON CMA_CAT CMA_WIND CMA_PRES HKO_LAT HKO_LON HKO_CAT HKO_WIND HKO_PRES NEWDELHI_LAT NEWDELHI_LON NEWDELHI_GRADE NEWDELHI_WIND NEWDELHI_PRES NEWDELHI_CI NEWDELHI_DP NEWDELHI_POCI REUNION_LAT REUNION_LON REUNION_TYPE REUNION_WIND REUNION_PRES REUNION_TNUM REUNION_CI REUNION_RMW REUNION_R34_NE REUNION_R34_SE REUNION_R34_SW REUNION_R34_NW REUNION_R50_NE REUNION_R50_SE REUNION_R50_SW REUNION_R50_NW REUNION_R64_NE REUNION_R64_SE REUNION_R64_SW REUNION_R64_NW BOM_LAT BOM_LON BOM_TYPE BOM_WIND BOM_PRES BOM_TNUM BOM_CI BOM_RMW BOM_R34_NE BOM_R34_SE BOM_R34_SW BOM_R34_NW BOM_R50_NE BOM_R50_SE BOM_R50_SW BOM_R50_NW BOM_R64_NE BOM_R64_SE BOM_R64_SW BOM_R64_NW BOM_ROCI BOM_POCI BOM_EYE BOM_POS_METHOD BOM_PRES_METHOD NADI_LAT NADI_LON NADI_CAT NADI_WIND NADI_PRES WELLINGTON_LAT WELLINGTON_LON WELLINGTON_WIND WELLINGTON_PRES DS824_LAT DS824_LON DS824_STAGE DS824_WIND DS824_PRES TD9636_LAT TD9636_LON TD9636_STAGE TD9636_WIND TD9636_PRES TD9635_LAT TD9635_LON TD9635_WIND TD9635_PRES TD9635_ROCI NEUMANN_LAT NEUMANN_LON NEUMANN_CLASS NEUMANN_WIND NEUMANN_PRES MLC_LAT MLC_LON MLC_CLASS MLC_WIND MLC_PRES USA_GUST BOM_GUST BOM_GUST_PER REUNION_GUST REUNION_GUST_PER USA_SEAHGT USA_SEARAD_NE USA_SEARAD_SE USA_SEARAD_SW USA_SEARAD_NW STORM_SPEED STORM_DIR
1995089S09131 1995 16 SI WA CHLOE 1995-03-29 18:00:00 TS -9.00000 130.500 main 130 124 O___________O_ jtwc_sh SH211995 -9.00000 130.500 15 -1 -9.00000 130.500 TC 15 2 118
1995089S09131 1995 16 SI WA CHLOE 1995-03-29 21:00:00 TS -9.05250 130.598 main 134 130 P___________P_ SH211995 -9.05250 130.598 15 -1 -9.05250 130.598 TC 15 2 117
1995089S09131 1995 16 SI WA CHLOE 1995-03-30 00:00:00 TS -9.10000 130.700 main 130 127 O___________O_ jtwc_sh SH211995 -9.10000 130.700 15 -1 -9.10000 130.700 TC 15 2 114
1995089S09131 1995 16 SI WA CHLOE 1995-03-30 03:00:00 TS -9.14250 130.808 main 127 127 P___________P_ SH211995 -9.14250 130.808 15 -1 -9.14250 130.808 TC 15 2 117
1995089S09131 1995 16 SI WA CHLOE 1995-03-30 06:00:00 TS -9.20000 130.900 main 136 136 O___________O_ jtwc_sh SH211995 -9.20000 130.900 15 -1 -9.20000 130.900 TC 15 2 135
1995089S09131 1995 16 SI WA CHLOE 1995-03-30 09:00:00 TS -9.29250 130.965 main 146 146 P___________P_ SH211995 -9.29250 130.965 15 -1 -9.29250 130.965 TC 15 2 153
1995089S09131 1995 16 SI WA CHLOE 1995-03-30 12:00:00 TS -9.40000 131.000 main 157 157 O___________O_ jtwc_sh SH211995 -9.40000 131.000 15 -1 -9.40000 131.000 TC 15 2 164
1995089S09131 1995 16 SI WA CHLOE 1995-03-30 15:00:00 TS -9.50750 131.015 main 168 168 P___________P_ SH211995 -9.50750 131.015 15 -1 -9.50750 131.015 TC 15 2 172
1995089S09131 1995 16 SI WA CHLOE 1995-03-30 18:00:00 TS -9.60000 131.000 main 179 179 O___________O_ jtwc_sh SH211995 -9.60000 131.000 15 -1 -9.60000 131.000 TC 15 2 199
1995089S09131 1995 16 SI WA CHLOE 1995-03-30 21:00:00 TS -9.65750 130.965 main 179 179 P___________P_ SH211995 -9.65750 130.965 15 -1 -9.65750 130.965 TC 15 1 223
1995089S09131 1995 16 SI WA CHLOE 1995-03-31 00:00:00 TS -9.70000 130.900 main 180 180 O___________O_ jtwc_sh SH211995 -9.70000 130.900 15 -1 -9.70000 130.900 TC 15 2 238
1995089S09131 1995 16 SI WA CHLOE 1995-03-31 03:00:00 TS -9.74999 130.815 main 180 168 P___________P_ SH211995 -9.74999 130.815 15 -1 -9.74999 130.815 TC 15 2 243
1995089S09131 1995 16 SI WA CHLOE 1995-03-31 06:00:00 TS -9.80000 130.700 main 168 168 O___________O_ jtwc_sh SH211995 -9.80000 130.700 15 -1 -9.80000 130.700 TC 15 3 248
1995089S09131 1995 16 SI WA CHLOE 1995-03-31 09:00:00 TS -9.84999 130.565 main 168 156 P___________P_ SH211995 -9.84999 130.565 15 -1 -9.84999 130.565 TC 15 3 251
1995089S09131 1995 16 SI WA CHLOE 1995-03-31 12:00:00 TS -9.90000 130.400 main 157 157 O___________O_ jtwc_sh SH211995 -9.90000 130.400 15 -1 -9.90000 130.400 TC 15 4 254
1995089S09131 1995 16 SI WA CHLOE 1995-03-31 15:00:00 TS -9.94999 130.215 main 160 149 P___________P_ SH211995 -9.94999 130.215 15 -1 -9.94999 130.215 TC 15 4 256
1995089S09131 1995 16 SI WA CHLOE 1995-03-31 18:00:00 TS -10.0000 130.000 main 155 155 O___________O_ jtwc_sh SH211995 -10.0000 130.000 15 -1 -10.0000 130.000 TC 15 5 257
1995089S09131 1995 16 SI WA CHLOE 1995-03-31 21:00:00 TS -10.0500 129.758 main 162 155 P___________P_ SH211995 -10.0500 129.758 15 -1 -10.0500 129.758 TC 15 5 259
1995089S09131 1995 16 SI WA CHLOE 1995-04-01 00:00:00 TS -10.1000 129.500 main 164 164 O___________O_ jtwc_sh SH211995 -10.1000 129.500 15 -1 -10.1000 129.500 TC 15 5 259
1995089S09131 1995 16 SI WA CHLOE 1995-04-01 03:00:00 TS -10.1500 129.250 main 175 173 P___________P_ SH211995 -10.1500 129.250 15 -1 -10.1500 129.250 TC 15 5 259
1995089S09131 1995 16 SI WA CHLOE 1995-04-01 06:00:00 TS -10.2000 129.000 main 187 187 O___________O_ jtwc_sh SH211995 -10.2000 129.000 15 -1 -10.2000 129.000 TC 15 5 259
1995089S09131 1995 16 SI WA CHLOE 1995-04-01 09:00:00 TS -10.2500 128.750 main 203 203 P___________P_ SH211995 -10.2500 128.750 15 -1 -10.2500 128.750 TC 15 5 259
1995089S09131 1995 16 SI WA CHLOE 1995-04-01 12:00:00 TS -10.3000 128.500 main 220 220 O___________O_ jtwc_sh SH211995 -10.3000 128.500 15 -1 -10.3000 128.500 TC 15 5 258
1995089S09131 1995 16 SI WA CHLOE 1995-04-01 15:00:00 TS -10.3575 128.250 main 232 219 P___________P_ SH211995 -10.3575 128.250 15 -1 -10.3575 128.250 TC 15 5 259
1995089S09131 1995 16 SI WA CHLOE 1995-04-01 18:00:00 TS -10.4000 128.000 main 219 209 O___________O_ jtwc_sh SH211995 -10.4000 128.000 15 -1 -10.4000 128.000 TC 15 5 264
1995089S09131 1995 16 SI WA CHLOE 1995-04-01 21:00:00 TS -10.4075 127.750 main 209 191 P___________P_ SH211995 -10.4075 127.750 15 -1 -10.4075 127.750 TC 15 5 270
1995089S09131 1995 16 SI WA CHLOE 1995-04-02 00:00:00 TS -10.4000 127.500 main 191 179 O___________O_ jtwc_sh SH211995 -10.4000 127.500 15 -1 -10.4000 127.500 TC 15 5 270
1995089S09131 1995 16 SI WA CHLOE 1995-04-02 03:00:00 TS -10.4075 127.243 main 174 166 P___________P_ SH211995 -10.4075 127.243 15 -1 -10.4075 127.243 TC 15 5 270
1995089S09131 1995 16 SI WA CHLOE 1995-04-02 06:00:00 TS -10.4000 127.000 main 166 160 O___________O_ jtwc_sh SH211995 -10.4000 127.000 15 -1 -10.4000 127.000 TC 15 4 276
1995089S09131 1995 16 SI WA CHLOE 1995-04-02 09:00:00 TS -10.3575 126.792 main 160 146 P___________P_ SH211995 -10.3575 126.792 15 -1 -10.3575 126.792 TC 15 4 284
1995089S09131 1995 16 SI WA CHLOE 1995-04-02 12:00:00 TS -10.3000 126.600 main 146 145 O___________O_ jtwc_sh SH211995 -10.3000 126.600 15 -1 -10.3000 126.600 TC 15 4 286
1995089S09131 1995 16 SI WA CHLOE 1995-04-02 15:00:00 TS -10.2500 126.400 main 134 127 P___________P_ SH211995 -10.2500 126.400 15 -1 -10.2500 126.400 TC 15 4 284
1995089S09131 1995 16 SI WA CHLOE 1995-04-02 18:00:00 TS -10.2000 126.200 main 127 120 O___________O_ jtwc_sh SH211995 -10.2000 126.200 15 -1 -10.2000 126.200 TC 15 4 284
1995089S09131 1995 16 SI WA CHLOE 1995-04-02 21:00:00 TS -10.1500 126.000 main 109 99 P___________P_ SH211995 -10.1500 126.000 17 -1 -10.1500 126.000 TC 17 3 326
1995089S09131 1995 16 SI WA CHLOE 1995-04-03 00:00:00 TS -9.98889 126.056 20 1005 bom main 103 89 O_____O_____O_ jtwc_sh SH211995 -10.1000 125.800 20 -1 -9.10000 128.100 20 20 1005 1.00000 80 3 5 -10.1000 125.800 TC 20 3 4
1995089S09131 1995 16 SI WA CHLOE 1995-04-03 03:00:00 TS -9.86283 126.012 main 89 74 P_____P_____P_ SH211995 -10.0500 125.600 20 -1 -9.11422 127.659 20 20 1005 80 -10.0500 125.600 TC 20 3 324
1995089S09131 1995 16 SI WA CHLOE 1995-04-03 06:00:00 TS -9.76344 125.890 main 74 55 O_____P_____O_ jtwc_sh SH211995 -10.0000 125.400 20 -1 -9.13261 127.195 20 20 1005 80 -10.0000 125.400 TC 20 4 299
1995089S09131 1995 16 SI WA CHLOE 1995-04-03 09:00:00 TS -9.68657 125.694 main 55 40 P_____P_____P_ SH211995 -9.94999 125.200 20 -1 -9.15973 126.683 20 20 1005 80 -9.94999 125.200 TC 20 5 281
1995089S09131 1995 16 SI WA CHLOE 1995-04-03 12:00:00 TS -9.66667 125.367 20 1005 bom main 40 0 O_____O_____O_ jtwc_sh SH211995 -9.90000 125.000 20 -1 -9.20000 126.100 20 20 1005 1.00000 80 3 5 -9.90000 125.000 TC 20 7 273
1995089S09131 1995 16 SI WA CHLOE 1995-04-03 15:00:00 TS -9.64712 125.018 main 0 0 P_____P_____P_ SH211995 -9.84247 124.807 20 -1 -9.25641 125.439 20 20 1005 86 -9.84247 124.807 TC 20 7 272
1995089S09131 1995 16 SI WA CHLOE 1995-04-03 18:00:00 TS -9.64232 124.655 main 0 0 O_____P_____O_ jtwc_sh SH211995 -9.80000 124.600 20 -1 -9.32696 124.764 20 20 1005 93 -9.80000 124.600 TC 20 7 269
1995089S09131 1995 16 SI WA CHLOE 1995-04-03 21:00:00 TS -9.65963 124.291 main 0 0 P_____P_____P_ SH211995 -9.78500 124.357 20 -1 -9.40890 124.157 20 20 1005 100 -9.78500 124.357 TC 20 7 265
1995089S09131 1995 16 SI WA CHLOE 1995-04-04 00:00:00 TS -9.70000 123.967 20 1005 bom main 0 0 O_____O_____O_ jtwc_sh SH211995 -9.80000 124.100 20 -1 -9.50000 123.700 20 20 1005 1.50000 107 3 5 -9.80000 124.100 TC 20 6 260
1995089S09131 1995 16 SI WA CHLOE 1995-04-04 03:00:00 TS -9.76077 123.720 main 0 0 P_____P_____P_ SH211995 -9.84248 123.850 20 -1 -9.59733 123.461 20 20 1005 107 -9.84248 123.850 TC 20 5 254
1995089S09131 1995 16 SI WA CHLOE 1995-04-04 06:00:00 TS -9.83333 123.500 20 1005 bom main 21 21 O_____O_____O_ jtwc_sh SH211995 -9.90000 123.600 20 -1 -9.70000 123.300 20 20 1005 1.50000 107 3 5 -9.90000 123.600 TC 20 5 252
1995089S09131 1995 16 SI WA CHLOE 1995-04-04 09:00:00 TS -9.89997 123.274 main 34 34 P_____P_____P_ SH211995 -9.94996 123.357 22 -1 -9.79997 123.107 20 22 1002 107 -9.94996 123.357 TC 22 5 254
1995089S09131 1995 16 SI WA CHLOE 1995-04-04 12:00:00 TS -9.96667 123.033 25 1000 bom main 59 59 O_____O_____O_ jtwc_sh SH211995 -10.0000 123.100 25 -1 -9.90000 122.900 20 25 1000 2.00000 107 3 5 -10.0000 123.100 TC 25 5 256
1995089S09131 1995 16 SI WA CHLOE 1995-04-04 15:00:00 TS -10.0308 122.755 main 79 79 P_____P_____P_ SH211995 -10.0425 122.807 25 -1 -10.0075 122.650 20 27 1000 107 -10.0425 122.807 TC 25 6 257
1995089S09131 1995 16 SI WA CHLOE 1995-04-04 18:00:00 TS -10.1000 122.467 30 1000 bom main 110 110 O_____O_____O_ jtwc_sh SH211995 -10.1000 122.500 25 -1 -10.1000 122.400 20 30 1000 2.50000 107 3 5 -10.1000 122.500 TC 25 6 255
1995089S09131 1995 16 SI WA CHLOE 1995-04-04 21:00:00 TS -10.1722 122.201 main 142 125 P_____P_____P_ SH211995 -10.1850 122.185 25 -1 -10.1465 122.234 20 32 997 120 -10.1850 122.185 TC 25 6 252
1995089S09131 1995 16 SI WA CHLOE 1995-04-05 00:00:00 TS -10.2667 121.933 35 995 bom main 125 104 O_____O_____O_ jtwc_sh SH211995 -10.3000 121.900 25 -1 -10.2000 122.000 30 35 995 3.00000 134 3 5 -10.3000 121.900 TC 25 6 248
1995089S09131 1995 16 SI WA CHLOE 1995-04-05 03:00:00 TS -10.3950 121.652 40 990 bom main 108 83 P_____O_____P_ SH211995 -10.4425 121.677 27 -1 -10.3000 121.600 30 40 990 3.00000 134 3 5 -10.4425 121.677 TC 27 6 243
1995089S09131 1995 16 SI WA CHLOE 1995-04-05 06:00:00 TS -10.5333 121.400 50 985 bom main 83 70 O_____O_____O_ jtwc_sh SH211995 -10.6000 121.500 30 -1 -10.4000 121.200 30 50 985 3.00000 134 3 5 -10.6000 121.500 TC 30 5 241
1995089S09131 1995 16 SI WA CHLOE 1995-04-05 09:00:00 TS -10.6567 121.180 55 980 bom main 78 71 P_____O_____P_ SH211995 -10.7350 121.320 32 -1 -10.5000 120.900 30 55 980 4.00000 134 3 5 -10.7350 121.320 TC 32 4 228
1995089S09131 1995 16 SI WA CHLOE 1995-04-05 12:00:00 TS -10.8000 121.100 60 975 bom main 80 80 O_____O_____O_ jtwc_sh SH211995 -10.9000 121.200 35 0 -10.6000 120.900 30 60 975 4.00000 134 3 5 -10.9000 121.200 TC 35 4 185
1995089S09131 1995 16 SI WA CHLOE 1995-04-05 15:00:00 TS -11.0566 121.137 65 970 bom main 109 109 P_____O_____P_ SH211995 -11.1350 121.155 37 0 -10.9000 121.100 40 65 970 4.50000 134 3 5 -11.1350 121.155 TC 37 5 165
1995089S09131 1995 16 SI WA CHLOE 1995-04-05 18:00:00 TS -11.3000 121.233 75 965 bom main 134 134 O_____O_____O_ jtwc_sh SH211995 -11.4000 121.200 40 0 -11.1000 121.300 40 75 965 4.50000 134 3 5 -11.4000 121.200 TC 40 6 155
1995089S09131 1995 16 SI WA CHLOE 1995-04-05 21:00:00 TS -11.5667 121.380 75 960 bom main 174 174 P_____O_____P_ SH211995 -11.6500 121.320 45 0 -11.4000 121.500 40 75 960 4.50000 134 3 5 -11.6500 121.320 TC 45 6 147
1995089S09131 1995 16 SI WA CHLOE 1995-04-06 00:00:00 TS -11.8000 121.567 80 955 bom main 204 204 O_____O_____O_ jtwc_sh SH211995 -11.9000 121.500 50 0 -11.6000 121.700 40 80 955 5.00000 134 3 5 -11.9000 121.500 TC 50 6 146
1995089S09131 1995 16 SI WA CHLOE 1995-04-06 03:00:00 TS -12.0667 121.723 80 955 bom main 239 239 P_____O_____P_ SH211995 -12.1500 121.685 55 0 -11.9000 121.800 40 80 955 5.00000 134 3 5 -12.1500 121.685 TC 55 6 148
1995089S09131 1995 16 SI WA CHLOE 1995-04-06 06:00:00 TS -12.3333 121.900 85 955 bom main 269 269 O_____O_____O_ jtwc_sh SH211995 -12.4000 121.900 60 0 -12.2000 121.900 40 85 955 5.00000 134 3 5 -12.4000 121.900 TC 60 7 143
1995089S09131 1995 16 SI WA CHLOE 1995-04-06 09:00:00 TS -12.5950 122.128 85 955 bom main 289 284 P_____O_____P_ SH211995 -12.6425 122.143 65 1 -12.5000 122.100 40 85 955 5.00000 134 3 5 -12.6425 122.143 TC 65 7 141
1995089S09131 1995 16 SI WA CHLOE 1995-04-06 12:00:00 TS -12.9000 122.367 85 955 bom main 304 304 O_____O_____O_ jtwc_sh SH211995 -12.9000 122.400 70 1 -12.9000 122.300 40 85 955 5.00000 134 3 5 -12.9000 122.400 TC 70 8 146
1995089S09131 1995 16 SI WA CHLOE 1995-04-06 15:00:00 TS -13.2283 122.572 95 945 bom main 321 286 P_____O_____P_ SH211995 -13.1925 122.658 77 1 -13.3000 122.400 40 95 945 5.50000 134 3 5 -13.1925 122.658 TC 77 8 143
1995089S09131 1995 16 SI WA CHLOE 1995-04-06 18:00:00 TS -13.5000 122.833 100 935 bom main 286 241 O_____O_____O_ jtwc_sh SH211995 -13.5000 122.900 85 2 -13.5000 122.700 40 100 935 6.00000 134 4 5 -13.5000 122.900 TC 85 8 139
1995089S09131 1995 16 SI WA CHLOE 1995-04-06 21:00:00 TS -13.8050 123.082 110 925 bom main 241 203 P_____O_____P_ SH211995 -13.8075 123.123 92 2 -13.8000 123.000 40 110 925 6.50000 134 4 6 -13.8075 123.123 TC 92 7 145
1995089S09131 1995 16 SI WA CHLOE 1995-04-07 00:00:00 TS -14.1000 123.267 120 920 bom main 203 172 O_____O_____O_ jtwc_sh SH211995 -14.1000 123.300 100 3 -14.1000 123.200 40 120 920 7.00000 107 4 6 -14.1000 123.300 TC 100 6 153
1995089S09131 1995 16 SI WA CHLOE 1995-04-07 03:00:00 TS -14.3766 123.377 120 920 bom main 172 155 P_____O_____P_ SH211995 -14.3650 123.415 107 3 -14.4000 123.300 40 120 920 7.00000 107 4 6 -14.3650 123.415 TC 107 5 162
1995089S09131 1995 16 SI WA CHLOE 1995-04-07 06:00:00 TS -14.6000 123.433 120 920 bom main 155 131 O_____O_____O_ jtwc_sh SH211995 -14.6000 123.500 115 4 -14.6000 123.300 40 120 920 7.00000 107 4 6 -14.6000 123.500 TC 115 5 160
1995089S09131 1995 16 SI WA CHLOE 1995-04-07 09:00:00 TS -14.8050 123.533 120 920 bom main 131 100 P_____O_____P_ SH211995 -14.8075 123.600 120 4 -14.8000 123.400 40 120 920 7.00000 107 4 6 -14.8075 123.600 TC 120 5 150
1995089S09131 1995 16 SI WA CHLOE 1995-04-07 12:00:00 TS -15.0000 123.667 110 925 bom main 100 78 O_____O_____O_ jtwc_sh SH211995 -15.0000 123.700 125 4 -15.0000 123.600 40 110 925 6.50000 107 4 6 -15.0000 123.700 TC 125 5 147
1995089S09131 1995 16 SI WA CHLOE 1995-04-07 15:00:00 TS -15.1950 123.795 105 930 bom main 78 58 P_____O_____P_ SH211995 -15.1925 123.793 122 4 -15.2000 123.800 40 105 930 6.00000 107 3 6 -15.1925 123.793 TC 122 5 156
1995089S09131 1995 16 SI WA CHLOE 1995-04-07 18:00:00 TS -15.4333 123.867 100 935 bom main 58 42 O_____O_____O_ jtwc_sh SH211995 -15.4000 123.900 120 4 -15.5000 123.800 40 100 935 5.50000 107 3 6 -15.4000 123.900 TC 120 5 154
1995089S09131 1995 16 SI WA CHLOE 1995-04-07 21:00:00 TS -15.6567 124.028 95 940 bom main 44 32 P_____O_____P_ SH211995 -15.6350 124.043 115 4 -15.7000 124.000 40 95 940 5.50000 107 3 6 -15.6350 124.043 TC 115 6 150
1995089S09131 1995 16 SI WA CHLOE 1995-04-08 00:00:00 TS -15.9333 124.167 90 945 bom main 32 10 O_____O_____O_ jtwc_sh SH211995 -15.9000 124.200 110 3 -16.0000 124.100 40 90 945 5.50000 107 3 6 -15.9000 124.200 TC 110 6 155
1995089S09131 1995 16 SI WA CHLOE 1995-04-08 03:00:00 TS -16.2233 124.305 80 955 bom main 10 0 P_____O_____P_ SH211995 -16.1850 124.358 100 3 -16.3000 124.200 40 80 955 80 3 5 -16.1850 124.358 TC 100 6 160
1995089S09131 1995 16 SI WA CHLOE 1995-04-08 06:00:00 TS -16.5333 124.400 70 965 bom main 10 0 O_____O_____O_ jtwc_sh SH211995 -16.5000 124.500 90 2 -16.6000 124.200 40 70 965 80 3 5 -16.5000 124.500 TC 90 7 168
1995089S09131 1995 16 SI WA CHLOE 1995-04-08 09:00:00 TS -16.8567 124.443 55 980 bom main 0 0 P_____O_____P_ SH211995 -16.8350 124.615 70 1 -16.9000 124.100 30 55 980 80 3 5 -16.8350 124.615 TC 77 7 171
1995089S09131 1995 16 SI WA CHLOE 1995-04-08 12:00:00 TS -17.1727 124.509 40 990 bom main 0 0 O_____O_____O_ jtwc_sh SH211995 -17.2000 124.700 50 0 -17.1000 124.000 30 40 990 80 3 5 -17.2000 124.700 TC 65 7 168
1995089S09131 1995 16 SI WA CHLOE 1995-04-08 15:00:00 TS -17.5340 124.590 30 1000 bom main 0 0 P_____O_____P_ SH211995 -17.5925 124.787 42 0 -17.3000 123.800 20 30 1000 80 3 4 -17.5925 124.787 TC 50 8 169
1995089S09131 1995 16 SI WA CHLOE 1995-04-08 18:00:00 TS -17.9556 124.667 25 1000 bom main 0 0 O_____O_____O_ jtwc_sh SH211995 -18.0000 124.800 35 0 -17.6000 123.600 20 25 1000 80 3 4 -18.0000 124.800 TC 35 9 174
1995089S09131 1995 16 SI WA CHLOE 1995-04-08 21:00:00 TS -18.4150 124.680 main 0 0 P___________P_ SH211995 -18.4150 124.680 30 -1 -18.4150 124.680 TC 30 9 191
1995089S09131 1995 16 SI WA CHLOE 1995-04-09 00:00:00 TS -18.8000 124.500 main 0 0 O___________O_ jtwc_sh SH211995 -18.8000 124.500 25 -1 -18.8000 124.500 TC 25 8 204
1995089S09131 1995 16 SI WA CHLOE 1995-04-09 03:00:00 TS -19.1200 124.340 main 0 0 P___________P_ SH211995 -19.1200 124.340 22 -1 -19.1200 124.340 TC 22 7 205
1995089S09131 1995 16 SI WA CHLOE 1995-04-09 06:00:00 TS -19.4000 124.200 main 0 O___________O_ jtwc_sh SH211995 -19.4000 124.200 20 -1 -19.4000 124.200 TC 20 6 205

About IBTrACS Database

This database is a web-friendly format of International Best Track Archive for Climate Stewardship (IBTrACS), a global best track data archive curated by NOAA dating back to 1842.

Updated: 2021-10-27